createdAt,value
2018-09-21T00:01:45.129Z,6.97
2018-09-21T00:04:14.845Z,6.70
2018-09-21T00:06:43.938Z,7.00
2018-09-21T00:09:13.387Z,7.12
2018-09-21T00:11:42.275Z,6.80
2018-09-21T00:14:11.623Z,6.70
2018-09-21T00:16:40.560Z,7.28
2018-09-21T00:19:09.705Z,6.50
2018-09-21T00:21:38.642Z,7.58
2018-09-21T00:24:07.619Z,6.87
2018-09-21T00:26:36.588Z,8.05
2018-09-21T00:29:05.501Z,7.30
2018-09-21T00:31:34.425Z,7.33
2018-09-21T00:34:03.329Z,7.42
2018-09-21T00:36:32.275Z,7.25
2018-09-21T00:39:01.206Z,7.58
2018-09-21T00:41:30.115Z,6.87
2018-09-21T00:43:59.166Z,7.30
2018-09-21T00:46:28.054Z,6.62
2018-09-21T00:48:57.042Z,6.62
2018-09-21T00:51:26.132Z,6.67
2018-09-21T00:53:55.082Z,7.37
2018-09-21T00:56:24.015Z,6.87
2018-09-21T00:58:52.996Z,7.55
2018-09-21T01:01:21.910Z,7.28
2018-09-21T01:03:50.828Z,6.70
2018-09-21T01:06:19.906Z,6.92
2018-09-21T01:08:48.818Z,7.15
2018-09-21T01:11:17.780Z,7.28
2018-09-21T01:13:46.607Z,6.72
2018-09-21T01:16:15.490Z,6.85
2018-09-21T01:18:44.454Z,7.03
2018-09-21T01:21:13.434Z,7.22
2018-09-21T01:23:42.370Z,6.78
2018-09-21T01:26:11.329Z,6.97
2018-09-21T01:28:40.326Z,7.00
2018-09-21T01:31:09.240Z,7.70
2018-09-21T01:33:38.318Z,7.28
2018-09-21T01:36:07.264Z,7.53
2018-09-21T01:38:36.177Z,7.00
2018-09-21T01:41:05.078Z,7.60
2018-09-21T01:43:34.090Z,6.92
2018-09-21T01:46:03.018Z,7.58
2018-09-21T01:48:32.082Z,7.20
2018-09-21T01:51:01.026Z,7.35
2018-09-21T01:53:29.986Z,7.70
2018-09-21T01:55:59.138Z,6.92
2018-09-21T01:58:28.067Z,7.35
2018-09-21T02:00:56.997Z,7.28
2018-09-21T02:03:25.959Z,7.33
2018-09-21T02:05:55.606Z,7.78
2018-09-21T02:08:24.577Z,7.65
2018-09-21T02:10:53.536Z,7.35
2018-09-21T02:13:22.952Z,7.33
2018-09-21T02:15:52.048Z,7.10
2018-09-21T02:18:20.997Z,7.62
2018-09-21T02:20:49.943Z,7.62
2018-09-21T02:23:18.854Z,6.95
2018-09-21T02:25:47.778Z,7.12
2018-09-21T02:28:16.891Z,7.50
2018-09-21T02:30:45.800Z,7.30
2018-09-21T02:33:14.839Z,7.75
2018-09-21T02:35:43.748Z,7.12
2018-09-21T02:38:12.693Z,7.60
2018-09-21T02:40:41.618Z,7.67
2018-09-21T02:43:10.623Z,7.40
2018-09-21T02:45:39.533Z,6.80
2018-09-21T02:48:08.507Z,7.50
2018-09-21T02:50:37.420Z,7.50
2018-09-21T02:53:06.318Z,7.40
2018-09-21T02:55:35.306Z,7.30
2018-09-21T02:58:04.594Z,7.40
2018-09-21T03:00:34.498Z,7.40
2018-09-21T03:03:03.967Z,7.45
2018-09-21T03:05:32.918Z,7.10
2018-09-21T03:08:01.851Z,6.62
2018-09-21T03:10:30.890Z,7.60
2018-09-21T03:12:59.888Z,9.33
2018-09-21T03:15:29.244Z,7.58
2018-09-21T03:17:58.182Z,7.03
2018-09-21T03:20:27.075Z,6.80
2018-09-21T03:22:55.996Z,6.95
2018-09-21T03:25:24.902Z,6.78
2018-09-21T03:27:53.845Z,6.42
2018-09-21T03:30:22.763Z,7.25
2018-09-21T03:32:51.666Z,6.47
2018-09-21T03:35:20.647Z,6.70
2018-09-21T03:37:49.717Z,6.92
2018-09-21T03:40:19.092Z,6.97
2018-09-21T03:42:48.022Z,6.60
2018-09-21T03:45:16.989Z,6.53
2018-09-21T03:47:46.107Z,6.97
2018-09-21T03:50:15.007Z,6.58
2018-09-21T03:52:43.895Z,6.53
2018-09-21T03:55:12.812Z,7.08
2018-09-21T03:57:41.979Z,6.90
2018-09-21T04:00:11.045Z,6.85
2018-09-21T04:02:39.958Z,6.60
2018-09-21T04:05:08.898Z,6.80
2018-09-21T04:07:37.954Z,6.50
2018-09-21T04:10:06.902Z,6.83
2018-09-21T04:12:35.927Z,6.45
2018-09-21T04:15:05.966Z,6.47
2018-09-21T04:17:34.858Z,7.08
2018-09-21T04:20:03.936Z,6.55
2018-09-21T04:22:33.436Z,6.45
2018-09-21T04:25:03.789Z,7.08
2018-09-21T04:27:32.719Z,6.60
2018-09-21T04:30:01.673Z,6.78
2018-09-21T04:32:30.646Z,6.72
2018-09-21T04:34:59.602Z,6.60
2018-09-21T04:37:28.514Z,6.85
2018-09-21T04:39:57.442Z,6.78
2018-09-21T04:42:26.331Z,6.40
2018-09-21T04:44:55.259Z,6.85
2018-09-21T04:47:24.221Z,7.58
2018-09-21T04:49:53.252Z,7.53
2018-09-21T04:52:22.200Z,6.90
2018-09-21T04:54:51.275Z,6.92
2018-09-21T04:57:20.396Z,6.87
2018-09-21T04:59:49.345Z,6.75
2018-09-21T05:02:18.419Z,6.75
2018-09-21T05:04:47.345Z,6.95
2018-09-21T05:07:16.241Z,7.20
2018-09-21T05:09:45.296Z,6.35
2018-09-21T05:12:14.263Z,6.70
2018-09-21T05:14:43.205Z,6.97
2018-09-21T05:17:12.091Z,6.80
2018-09-21T05:19:41.107Z,8.13
2018-09-21T05:22:10.253Z,7.12
2018-09-21T05:24:39.194Z,6.85
2018-09-21T05:27:08.173Z,7.03
2018-09-21T05:29:37.130Z,7.65
2018-09-21T05:32:06.270Z,7.08
2018-09-21T05:34:35.335Z,7.20
2018-09-21T05:37:04.459Z,6.62
2018-09-21T05:39:33.392Z,7.17
2018-09-21T05:42:02.434Z,7.20
2018-09-21T05:44:31.586Z,7.17
2018-09-21T05:47:00.531Z,6.60
2018-09-21T05:49:29.834Z,6.80
2018-09-21T05:51:58.846Z,6.30
2018-09-21T05:54:27.790Z,6.58
2018-09-21T05:56:56.816Z,6.60
2018-09-21T05:59:26.093Z,6.97
2018-09-21T06:01:55.174Z,7.10
2018-09-21T06:04:24.331Z,6.97
2018-09-21T06:06:53.376Z,7.55
2018-09-21T06:09:22.317Z,6.90
2018-09-21T06:11:51.234Z,7.15
2018-09-21T06:14:20.179Z,7.30
2018-09-21T06:16:49.164Z,6.55
2018-09-21T06:19:18.220Z,6.97
2018-09-21T06:21:47.280Z,6.92
2018-09-21T06:24:16.331Z,6.83
2018-09-21T06:26:45.422Z,6.97
2018-09-21T06:29:14.400Z,6.92
2018-09-21T06:31:43.085Z,6.53
2018-09-21T06:34:11.981Z,6.70
2018-09-21T06:36:40.883Z,6.70
2018-09-21T06:39:11.215Z,6.72
2018-09-21T06:41:40.420Z,6.90
2018-09-21T06:44:09.635Z,6.70
2018-09-21T06:46:38.843Z,6.42
2018-09-21T06:49:07.569Z,6.40
2018-09-21T06:51:36.266Z,6.30
2018-09-21T06:54:05.369Z,6.37
2018-09-21T06:56:35.177Z,6.50
2018-09-21T06:59:04.121Z,6.92
2018-09-21T07:01:33.222Z,6.37
2018-09-21T07:04:02.169Z,6.03
2018-09-21T07:06:31.077Z,6.00
2018-09-21T07:09:00.078Z,7.00
2018-09-21T07:11:28.769Z,6.20
2018-09-21T07:13:57.692Z,6.55
2018-09-21T07:16:26.697Z,6.08
2018-09-21T07:18:55.388Z,6.10
2018-09-21T07:21:24.365Z,6.60
2018-09-21T07:23:53.304Z,6.37
2018-09-21T07:26:22.414Z,5.97
2018-09-21T07:28:51.164Z,6.07
2018-09-21T07:31:20.115Z,6.35
2018-09-21T07:33:49.214Z,5.97
2018-09-21T07:36:18.199Z,5.90
2018-09-21T07:38:46.812Z,5.80
2018-09-21T07:41:15.516Z,5.97
2018-09-21T07:43:44.169Z,6.40
2018-09-21T07:46:12.827Z,6.60
2018-09-21T07:48:41.565Z,6.17
2018-09-21T07:51:10.256Z,5.87
2018-09-21T07:53:39.245Z,5.63
2018-09-21T07:56:07.964Z,6.10
2018-09-21T07:58:36.643Z,6.00
2018-09-21T08:01:05.327Z,5.93
2018-09-21T08:03:33.967Z,5.70
2018-09-21T08:06:03.108Z,6.20
2018-09-21T08:08:31.975Z,6.43
2018-09-21T08:11:00.608Z,6.00
2018-09-21T08:13:29.384Z,5.70
2018-09-21T08:15:58.123Z,5.90
2018-09-21T08:18:26.782Z,5.80
2018-09-21T08:20:55.465Z,6.00
2018-09-21T08:23:24.221Z,5.80
2018-09-21T08:25:52.874Z,5.70
2018-09-21T08:28:21.534Z,6.20
2018-09-21T08:30:50.259Z,5.90
2018-09-21T08:33:19.092Z,5.97
2018-09-21T08:35:47.999Z,5.90
2018-09-21T08:38:16.646Z,5.90
2018-09-21T08:40:45.261Z,5.80
2018-09-21T08:43:14.087Z,6.20
2018-09-21T08:45:43.157Z,5.87
2018-09-21T08:48:11.973Z,6.03
2018-09-21T08:50:40.758Z,6.97
2018-09-21T08:53:09.390Z,6.50
2018-09-21T08:55:38.039Z,6.93
2018-09-21T08:58:06.668Z,5.77
2018-09-21T09:00:35.400Z,6.27
2018-09-21T09:03:04.096Z,5.60
2018-09-21T09:05:33.074Z,6.00
2018-09-21T09:08:01.778Z,5.93
2018-09-21T09:10:30.484Z,5.83
2018-09-21T09:12:59.132Z,6.43
2018-09-21T09:15:27.794Z,5.57
2018-09-21T09:17:56.515Z,6.00
2018-09-21T09:20:25.166Z,6.13
2018-09-21T09:22:53.822Z,5.63
2018-09-21T09:25:22.449Z,6.90
2018-09-21T09:27:51.270Z,5.87
2018-09-21T09:30:20.389Z,6.10
2018-09-21T09:32:49.240Z,5.80
2018-09-21T09:35:17.856Z,6.10
2018-09-21T09:37:46.467Z,6.33
2018-09-21T09:40:15.122Z,5.90
2018-09-21T09:42:43.912Z,5.57
2018-09-21T09:45:12.687Z,5.80
2018-09-21T09:47:41.391Z,5.83
2018-09-21T09:50:10.061Z,5.80
2018-09-21T09:52:39.205Z,5.73
2018-09-21T09:55:07.893Z,6.03
2018-09-21T09:57:36.573Z,5.83
2018-09-21T10:00:06.459Z,5.90
2018-09-21T10:02:35.548Z,5.77
2018-09-21T10:05:04.683Z,5.57
2018-09-21T10:07:33.417Z,6.80
2018-09-21T10:10:02.178Z,6.50
2018-09-21T10:12:30.834Z,5.90
2018-09-21T10:14:59.472Z,6.00
2018-09-21T10:17:28.201Z,5.97
2018-09-21T10:19:56.908Z,5.53
2018-09-21T10:22:25.607Z,5.57
2018-09-21T10:24:54.275Z,5.40
2018-09-21T10:27:22.998Z,5.50
2018-09-21T10:29:51.874Z,5.10
2018-09-21T10:32:20.720Z,4.40
2018-09-21T10:34:49.374Z,4.77
2018-09-21T10:37:18.111Z,4.67
2018-09-21T10:39:46.763Z,4.67
2018-09-21T10:42:15.442Z,5.27
2018-09-21T10:44:44.092Z,4.87
2018-09-21T10:47:12.720Z,4.93
2018-09-21T10:49:41.447Z,4.87
2018-09-21T10:52:10.123Z,5.50
2018-09-21T10:54:38.809Z,4.77
2018-09-21T10:57:07.499Z,4.70
2018-09-21T10:59:36.209Z,5.17
2018-09-21T11:02:05.248Z,4.67
2018-09-21T11:04:33.882Z,4.33
2018-09-21T11:07:02.596Z,4.67
2018-09-21T11:09:31.269Z,5.00
2018-09-21T11:11:59.957Z,5.13
2018-09-21T11:14:28.623Z,4.70
2018-09-21T11:16:57.325Z,5.20
2018-09-21T11:19:26.552Z,4.90
2018-09-21T11:21:55.301Z,5.03
2018-09-21T11:24:24.533Z,5.37
2018-09-21T11:26:53.222Z,5.70
2018-09-21T11:29:21.860Z,5.20
2018-09-21T11:31:50.569Z,5.17
2018-09-21T11:34:19.345Z,5.70
2018-09-21T11:36:48.024Z,5.30
2018-09-21T11:39:16.715Z,5.73
2018-09-21T11:41:45.355Z,5.37
2018-09-21T11:44:14.027Z,5.13
2018-09-21T11:46:42.699Z,5.60
2018-09-21T11:49:11.566Z,5.17
2018-09-21T11:51:40.359Z,6.10
2018-09-21T11:54:09.026Z,5.30
2018-09-21T11:56:37.742Z,5.67
2018-09-21T11:59:06.432Z,5.90
2018-09-21T12:01:35.262Z,5.70
2018-09-21T12:04:04.709Z,5.80
2018-09-21T12:06:33.413Z,6.47
2018-09-21T12:09:02.108Z,5.63
2018-09-21T12:11:30.777Z,5.70
2018-09-21T12:13:59.444Z,5.80
2018-09-21T12:16:28.152Z,6.03
2018-09-21T12:18:56.894Z,5.93
2018-09-21T12:21:25.599Z,6.10
2018-09-21T12:23:54.263Z,5.93
2018-09-21T12:26:23.287Z,5.63
2018-09-21T12:28:51.931Z,5.93
2018-09-21T12:31:20.666Z,6.00
2018-09-21T12:33:49.337Z,5.60
2018-09-21T12:36:18.148Z,5.93
2018-09-21T12:38:47.003Z,6.50
2018-09-21T12:41:15.865Z,5.40
2018-09-21T12:43:44.546Z,5.43
2018-09-21T12:46:17.011Z,6.20
2018-09-21T12:48:45.716Z,6.50
2018-09-21T12:51:14.379Z,6.00
2018-09-21T12:53:43.086Z,5.93
2018-09-21T12:56:11.823Z,6.43
2018-09-21T12:58:40.504Z,6.13
2018-09-21T13:01:09.306Z,6.00
2018-09-21T13:03:37.952Z,6.03
2018-09-21T13:06:06.643Z,5.27
2018-09-21T13:08:35.370Z,5.77
2018-09-21T13:11:04.073Z,5.87
2018-09-21T13:13:32.760Z,5.83
2018-09-21T13:16:01.433Z,6.17
2018-09-21T13:18:30.056Z,5.20
2018-09-21T13:20:58.711Z,5.77
2018-09-21T13:23:27.443Z,5.47
2018-09-21T13:25:56.145Z,5.07
2018-09-21T13:28:24.862Z,4.70
2018-09-21T13:30:53.522Z,5.20
2018-09-21T13:33:22.226Z,4.70
2018-09-21T13:35:50.964Z,5.17
2018-09-21T13:38:19.664Z,4.73
2018-09-21T13:40:48.316Z,5.00
2018-09-21T13:43:16.975Z,4.80
2018-09-21T13:45:45.614Z,4.83
2018-09-21T13:48:14.334Z,4.47
2018-09-21T13:50:43.024Z,4.60
2018-09-21T13:53:11.742Z,4.37
2018-09-21T13:55:40.403Z,4.40
2018-09-21T13:58:09.100Z,4.00
2018-09-21T14:00:37.836Z,4.43
2018-09-21T14:03:06.584Z,4.33
2018-09-21T14:05:35.325Z,3.83
2018-09-21T14:08:04.124Z,4.17
2018-09-21T14:10:32.807Z,4.00
2018-09-21T14:13:01.453Z,3.60
2018-09-21T14:15:30.105Z,3.33
2018-09-21T14:17:58.823Z,3.53
2018-09-21T14:20:27.484Z,3.53
2018-09-21T14:22:56.233Z,3.50
2018-09-21T14:25:24.959Z,3.73
2018-09-21T14:27:53.877Z,4.30
2018-09-21T14:30:22.615Z,4.20
2018-09-21T14:32:52.251Z,4.70
2018-09-21T14:35:21.405Z,4.10
2018-09-21T14:37:50.068Z,3.40
2018-09-21T14:40:19.186Z,4.03
2018-09-21T14:42:47.841Z,3.67
2018-09-21T14:45:16.496Z,3.53
2018-09-21T14:47:45.223Z,3.80
2018-09-21T14:50:14.065Z,3.20
2018-09-21T14:52:42.752Z,3.77
2018-09-21T14:55:11.397Z,3.80
2018-09-21T14:57:40.053Z,3.33
2018-09-21T15:00:08.770Z,3.70
2018-09-21T15:02:37.405Z,3.90
2018-09-21T15:05:06.147Z,3.80
2018-09-21T15:07:35.153Z,3.70
2018-09-21T15:10:03.842Z,2.67
2018-09-21T15:12:32.694Z,3.07
2018-09-21T15:15:01.681Z,3.87
2018-09-21T15:17:30.928Z,2.77
2018-09-21T15:19:59.931Z,4.97
2018-09-21T15:22:28.883Z,3.95
2018-09-21T15:24:57.809Z,2.45
2018-09-21T15:27:26.819Z,1.92
2018-09-21T15:29:55.775Z,1.98
2018-09-21T15:32:24.752Z,1.70
2018-09-21T15:34:53.699Z,1.70
2018-09-21T15:37:22.648Z,1.70
2018-09-21T15:39:51.613Z,1.62
2018-09-21T15:42:20.567Z,1.50
2018-09-21T15:44:49.605Z,1.32
2018-09-21T15:47:18.636Z,1.27
2018-09-21T15:49:47.760Z,1.30
2018-09-21T15:52:16.689Z,1.30
2018-09-21T15:54:45.647Z,1.42
2018-09-21T15:57:14.693Z,1.47
2018-09-21T15:59:43.645Z,1.20
2018-09-21T16:02:12.630Z,1.32
2018-09-21T16:04:41.555Z,1.15
2018-09-21T16:07:10.511Z,1.20
2018-09-21T16:09:41.350Z,0.90
2018-09-21T16:12:10.334Z,1.00
2018-09-21T16:14:39.291Z,0.80
2018-09-21T16:17:08.185Z,1.05
2018-09-21T16:19:43.437Z,0.90
2018-09-21T16:22:12.349Z,1.00
2018-09-21T16:24:41.282Z,1.12
2018-09-21T16:27:10.233Z,1.10
2018-09-21T16:29:39.201Z,1.05
2018-09-21T16:32:08.164Z,1.10
2018-09-21T16:34:37.185Z,1.07
2018-09-21T16:37:06.159Z,0.98
2018-09-21T16:39:35.135Z,1.00
2018-09-21T16:42:04.081Z,0.90
2018-09-21T16:44:33.132Z,1.12
2018-09-21T16:47:02.197Z,0.88
2018-09-21T16:49:31.162Z,1.10
2018-09-21T16:52:00.084Z,1.20
2018-09-21T16:54:29.011Z,1.12
2018-09-21T16:56:57.959Z,1.50
2018-09-21T16:59:26.952Z,1.27
2018-09-21T17:01:55.903Z,1.40
2018-09-21T17:04:24.885Z,1.60
2018-09-21T17:06:53.952Z,1.40
2018-09-21T17:09:22.885Z,1.42
2018-09-21T17:11:51.832Z,1.60
2018-09-21T17:14:20.804Z,1.65
2018-09-21T17:16:49.728Z,1.85
2018-09-21T17:19:18.692Z,1.82
2018-09-21T17:21:47.654Z,2.08
2018-09-21T17:24:16.582Z,1.80
2018-09-21T17:26:45.560Z,2.00
2018-09-21T17:29:14.664Z,2.10
2018-09-21T17:31:43.671Z,2.02
2018-09-21T17:34:12.751Z,1.90
2018-09-21T17:36:41.670Z,1.90
2018-09-21T17:39:12.144Z,1.90
2018-09-21T17:41:41.672Z,1.95
2018-09-21T17:44:10.822Z,2.37
2018-09-21T17:46:39.749Z,2.45
2018-09-21T17:49:08.655Z,2.45
2018-09-21T17:51:37.726Z,2.50
2018-09-21T17:54:06.618Z,2.60
2018-09-21T17:56:35.614Z,2.35
2018-09-21T17:59:04.874Z,2.50
2018-09-21T18:01:33.846Z,2.02
2018-09-21T18:04:02.792Z,2.30
2018-09-21T18:06:31.741Z,2.30
2018-09-21T18:09:00.692Z,2.05
2018-09-21T18:11:29.664Z,2.50
2018-09-21T18:13:58.587Z,2.50
2018-09-21T18:16:27.590Z,2.67
2018-09-21T18:18:56.671Z,2.75
2018-09-21T18:21:25.605Z,2.85
2018-09-21T18:23:54.534Z,3.05
2018-09-21T18:26:23.502Z,3.40
2018-09-21T18:28:52.423Z,3.58
2018-09-21T18:31:21.371Z,3.55
2018-09-21T18:33:50.559Z,4.00
2018-09-21T18:36:19.532Z,4.03
2018-09-21T18:38:48.454Z,3.70
2018-09-21T18:41:17.415Z,3.87
2018-09-21T18:43:46.428Z,3.83
2018-09-21T18:46:15.352Z,3.60
2018-09-21T18:48:44.347Z,3.40
2018-09-21T18:51:13.335Z,3.08
2018-09-21T18:53:42.291Z,2.30
2018-09-21T18:56:11.248Z,2.00
2018-09-21T18:58:40.321Z,2.50
2018-09-21T19:01:09.362Z,2.08
2018-09-21T19:03:38.315Z,2.40
2018-09-21T19:06:07.307Z,2.58
2018-09-21T19:08:36.392Z,2.08
2018-09-21T19:11:05.435Z,2.30
2018-09-21T19:13:34.537Z,2.10
2018-09-21T19:16:03.518Z,2.50
2018-09-21T19:18:32.491Z,2.50
2018-09-21T19:21:01.452Z,2.85
2018-09-21T19:23:30.427Z,2.37
2018-09-21T19:25:59.596Z,2.30
2018-09-21T19:28:28.560Z,2.37
2018-09-21T19:30:57.592Z,2.40
2018-09-21T19:33:26.522Z,2.08
2018-09-21T19:35:55.521Z,2.30
2018-09-21T19:38:24.528Z,2.55
2018-09-21T19:40:53.682Z,2.52
2018-09-21T19:43:22.777Z,2.30
2018-09-21T19:45:51.754Z,2.67
2018-09-21T19:48:20.792Z,2.90
2018-09-21T19:50:49.880Z,3.15
2018-09-21T19:53:18.823Z,3.50
2018-09-21T19:55:47.717Z,3.02
2018-09-21T19:58:16.685Z,3.08
2018-09-21T20:00:45.844Z,3.30
2018-09-21T20:03:14.983Z,2.90
2018-09-21T20:05:43.960Z,3.55
2018-09-21T20:08:12.869Z,3.20
2018-09-21T20:10:41.803Z,3.45
2018-09-21T20:13:10.778Z,3.77
2018-09-21T20:15:39.747Z,3.67
2018-09-21T20:18:08.699Z,3.90
2018-09-21T20:20:37.867Z,3.67
2018-09-21T20:23:06.865Z,3.80
2018-09-21T20:25:35.783Z,3.52
2018-09-21T20:28:05.667Z,3.83
2018-09-21T20:30:39.942Z,3.58
2018-09-21T20:33:14.127Z,3.90
2018-09-21T20:35:43.159Z,3.20
2018-09-21T20:38:12.106Z,3.80
2018-09-21T20:40:41.053Z,3.60
2018-09-21T20:43:10.028Z,3.52
2018-09-21T20:45:39.014Z,3.55
2018-09-21T20:48:08.330Z,4.08
2018-09-21T20:50:37.249Z,3.95
2018-09-21T20:53:06.275Z,4.37
2018-09-21T20:55:35.208Z,4.30
2018-09-21T20:58:04.159Z,4.20
2018-09-21T21:00:33.201Z,4.20
2018-09-21T21:03:02.115Z,4.20
2018-09-21T21:05:31.030Z,4.37
2018-09-21T21:07:59.957Z,5.05
2018-09-21T21:10:28.950Z,4.50
2018-09-21T21:12:58.003Z,4.75
2018-09-21T21:15:26.935Z,4.55
2018-09-21T21:17:55.887Z,4.37
2018-09-21T21:20:24.832Z,4.60
2018-09-21T21:22:53.854Z,4.87
2018-09-21T21:25:22.792Z,5.10
2018-09-21T21:27:51.786Z,4.37
2018-09-21T21:30:20.745Z,4.90
2018-09-21T21:32:49.673Z,4.30
2018-09-21T21:35:18.609Z,3.65
2018-09-21T21:37:47.554Z,3.60
2018-09-21T21:40:16.479Z,3.95
2018-09-21T21:42:45.387Z,4.20
2018-09-21T21:45:14.380Z,4.15
2018-09-21T21:47:43.398Z,3.80
2018-09-21T21:50:12.321Z,3.72
2018-09-21T21:52:41.276Z,4.20
2018-09-21T21:55:10.214Z,3.80
2018-09-21T21:57:39.157Z,3.60
2018-09-21T22:00:09.057Z,3.15
2018-09-21T22:02:38.031Z,3.12
2018-09-21T22:05:07.001Z,3.35
2018-09-21T22:07:37.155Z,2.90
2018-09-21T22:10:07.417Z,2.77
2018-09-21T22:12:41.603Z,2.85
2018-09-21T22:15:17.134Z,2.90
2018-09-21T22:17:46.267Z,2.70
2018-09-21T22:20:15.311Z,2.70
2018-09-21T22:22:44.202Z,2.45
2018-09-21T22:25:13.179Z,2.85
2018-09-21T22:27:42.648Z,2.27
2018-09-21T22:30:11.544Z,2.45
2018-09-21T22:32:40.797Z,2.55
2018-09-21T22:35:09.724Z,2.22
2018-09-21T22:37:38.626Z,2.20
2018-09-21T22:40:07.878Z,2.25
2018-09-21T22:42:36.788Z,1.90
2018-09-21T22:45:05.802Z,2.08
2018-09-21T22:47:34.830Z,2.08
2018-09-21T22:50:03.832Z,1.70
2018-09-21T22:52:32.772Z,1.75
2018-09-21T22:55:02.041Z,1.92
2018-09-21T22:57:30.914Z,1.70
2018-09-21T22:59:59.803Z,1.52
2018-09-21T23:02:28.726Z,1.60
2018-09-21T23:04:57.815Z,1.50
2018-09-21T23:07:26.701Z,1.70
2018-09-21T23:09:55.645Z,1.52
2018-09-21T23:12:24.539Z,1.40
2018-09-21T23:14:53.413Z,1.57
2018-09-21T23:17:22.352Z,1.50
2018-09-21T23:19:51.245Z,1.20
2018-09-21T23:22:20.176Z,1.60
2018-09-21T23:24:49.070Z,1.22
2018-09-21T23:27:17.951Z,1.15
2018-09-21T23:29:46.875Z,1.50
2018-09-21T23:32:15.797Z,1.15
2018-09-21T23:34:44.693Z,1.35
2018-09-21T23:37:13.598Z,1.10
2018-09-21T23:39:42.485Z,1.17
2018-09-21T23:42:11.365Z,1.05
2018-09-21T23:44:40.322Z,1.32
2018-09-21T23:47:09.204Z,1.00
2018-09-21T23:49:38.105Z,1.00
2018-09-21T23:52:07.041Z,0.98
2018-09-21T23:54:35.945Z,1.02
2018-09-21T23:57:04.880Z,1.20
2018-09-21T23:59:33.760Z,0.98
